sensor_id;sensor_type;location;lat;lon;timestamp;temperature;humidity
39875;DHT22;25547;52.530;13.194;2023-04-25T00:00:35;10.00;99.50
39875;DHT22;25547;52.530;13.194;2023-04-25T00:03:01;9.90;99.20
39875;DHT22;25547;52.530;13.194;2023-04-25T00:05:31;9.90;99.40
39875;DHT22;25547;52.530;13.194;2023-04-25T00:07:57;9.90;99.10
39875;DHT22;25547;52.530;13.194;2023-04-25T00:10:26;10.00;98.90
39875;DHT22;25547;52.530;13.194;2023-04-25T00:12:51;10.00;98.60
39875;DHT22;25547;52.530;13.194;2023-04-25T00:15:17;10.00;98.30
39875;DHT22;25547;52.530;13.194;2023-04-25T00:17:43;10.20;98.20
39875;DHT22;25547;52.530;13.194;2023-04-25T00:20:09;10.20;97.80
39875;DHT22;25547;52.530;13.194;2023-04-25T00:22:35;10.20;97.70
39875;DHT22;25547;52.530;13.194;2023-04-25T00:25:05;10.10;97.50
39875;DHT22;25547;52.530;13.194;2023-04-25T00:27:30;10.10;97.80
39875;DHT22;25547;52.530;13.194;2023-04-25T00:29:58;10.10;98.00
39875;DHT22;25547;52.530;13.194;2023-04-25T00:32:26;10.00;97.90
39875;DHT22;25547;52.530;13.194;2023-04-25T00:34:52;10.10;98.00
39875;DHT22;25547;52.530;13.194;2023-04-25T00:37:17;10.00;97.70
39875;DHT22;25547;52.530;13.194;2023-04-25T00:39:43;10.10;97.70
39875;DHT22;25547;52.530;13.194;2023-04-25T00:42:10;10.20;97.70
39875;DHT22;25547;52.530;13.194;2023-04-25T00:44:37;10.10;97.80
39875;DHT22;25547;52.530;13.194;2023-04-25T00:47:03;10.10;98.00
39875;DHT22;25547;52.530;13.194;2023-04-25T00:49:28;10.10;97.80
39875;DHT22;25547;52.530;13.194;2023-04-25T00:51:56;10.20;97.70
39875;DHT22;25547;52.530;13.194;2023-04-25T00:54:24;10.10;97.60
39875;DHT22;25547;52.530;13.194;2023-04-25T00:56:53;10.10;97.60
39875;DHT22;25547;52.530;13.194;2023-04-25T00:59:21;10.10;97.70
39875;DHT22;25547;52.530;13.194;2023-04-25T01:01:50;10.00;97.70
39875;DHT22;25547;52.530;13.194;2023-04-25T01:04:15;9.90;97.90
39875;DHT22;25547;52.530;13.194;2023-04-25T01:06:41;9.90;98.10
39875;DHT22;25547;52.530;13.194;2023-04-25T01:09:07;10.00;98.50
39875;DHT22;25547;52.530;13.194;2023-04-25T01:14:00;10.00;97.80
39875;DHT22;25547;52.530;13.194;2023-04-25T01:16:27;9.90;97.90
39875;DHT22;25547;52.530;13.194;2023-04-25T01:18:56;10.00;98.10
39875;DHT22;25547;52.530;13.194;2023-04-25T01:21:24;10.00;98.00
39875;DHT22;25547;52.530;13.194;2023-04-25T01:23:53;10.00;98.10
39875;DHT22;25547;52.530;13.194;2023-04-25T01:26:22;10.00;98.10
39875;DHT22;25547;52.530;13.194;2023-04-25T01:28:50;10.10;98.20
39875;DHT22;25547;52.530;13.194;2023-04-25T01:31:16;10.10;98.00
39875;DHT22;25547;52.530;13.194;2023-04-25T01:33:43;10.10;98.00
39875;DHT22;25547;52.530;13.194;2023-04-25T01:36:15;10.00;98.00
39875;DHT22;25547;52.530;13.194;2023-04-25T01:38:40;10.00;98.00
39875;DHT22;25547;52.530;13.194;2023-04-25T01:41:09;9.80;98.40
39875;DHT22;25547;52.530;13.194;2023-04-25T01:43:35;9.70;98.50
39875;DHT22;25547;52.530;13.194;2023-04-25T01:46:03;9.80;98.50
39875;DHT22;25547;52.530;13.194;2023-04-25T01:48:29;9.70;98.70
39875;DHT22;25547;52.530;13.194;2023-04-25T01:50:55;9.80;98.90
39875;DHT22;25547;52.530;13.194;2023-04-25T01:53:20;9.80;98.50
39875;DHT22;25547;52.530;13.194;2023-04-25T01:55:46;9.80;98.50
39875;DHT22;25547;52.530;13.194;2023-04-25T01:58:12;9.70;98.50
39875;DHT22;25547;52.530;13.194;2023-04-25T02:00:38;9.90;98.50
39875;DHT22;25547;52.530;13.194;2023-04-25T02:03:07;9.90;98.50
39875;DHT22;25547;52.530;13.194;2023-04-25T02:05:39;9.80;98.40
39875;DHT22;25547;52.530;13.194;2023-04-25T02:08:09;9.90;98.40
39875;DHT22;25547;52.530;13.194;2023-04-25T02:10:35;9.80;98.30
39875;DHT22;25547;52.530;13.194;2023-04-25T02:13:01;9.80;98.50
39875;DHT22;25547;52.530;13.194;2023-04-25T02:15:30;9.70;98.50
39875;DHT22;25547;52.530;13.194;2023-04-25T02:17:56;9.60;98.70
39875;DHT22;25547;52.530;13.194;2023-04-25T02:20:22;9.60;98.90
39875;DHT22;25547;52.530;13.194;2023-04-25T02:22:48;9.60;99.00
39875;DHT22;25547;52.530;13.194;2023-04-25T02:25:14;9.70;98.90
39875;DHT22;25547;52.530;13.194;2023-04-25T02:27:42;9.70;98.80
39875;DHT22;25547;52.530;13.194;2023-04-25T02:30:08;9.70;98.70
39875;DHT22;25547;52.530;13.194;2023-04-25T02:32:34;9.70;98.60
39875;DHT22;25547;52.530;13.194;2023-04-25T02:35:01;9.60;98.80
39875;DHT22;25547;52.530;13.194;2023-04-25T02:37:34;9.70;99.00
39875;DHT22;25547;52.530;13.194;2023-04-25T02:40:00;9.60;98.90
39875;DHT22;25547;52.530;13.194;2023-04-25T02:42:26;9.60;98.90
39875;DHT22;25547;52.530;13.194;2023-04-25T02:44:52;9.70;99.00
39875;DHT22;25547;52.530;13.194;2023-04-25T02:47:18;9.80;98.70
39875;DHT22;25547;52.530;13.194;2023-04-25T02:49:48;9.70;98.70
39875;DHT22;25547;52.530;13.194;2023-04-25T02:52:14;9.70;98.90
39875;DHT22;25547;52.530;13.194;2023-04-25T02:54:40;9.70;99.00
39875;DHT22;25547;52.530;13.194;2023-04-25T02:57:08;9.60;98.70
39875;DHT22;25547;52.530;13.194;2023-04-25T02:59:36;9.70;98.80
39875;DHT22;25547;52.530;13.194;2023-04-25T03:02:04;9.70;98.90
39875;DHT22;25547;52.530;13.194;2023-04-25T03:04:32;9.80;99.00
39875;DHT22;25547;52.530;13.194;2023-04-25T03:07:01;9.80;98.70
39875;DHT22;25547;52.530;13.194;2023-04-25T03:09:27;9.90;98.70
39875;DHT22;25547;52.530;13.194;2023-04-25T03:11:52;9.80;98.60
39875;DHT22;25547;52.530;13.194;2023-04-25T03:14:18;9.70;98.80
39875;DHT22;25547;52.530;13.194;2023-04-25T03:16:44;9.70;98.80
39875;DHT22;25547;52.530;13.194;2023-04-25T03:19:10;9.60;99.00
39875;DHT22;25547;52.530;13.194;2023-04-25T03:21:43;9.60;99.20
39875;DHT22;25547;52.530;13.194;2023-04-25T03:24:09;9.50;99.30
39875;DHT22;25547;52.530;13.194;2023-04-25T03:26:36;9.50;99.50
39875;DHT22;25547;52.530;13.194;2023-04-25T03:29:02;9.50;99.70
39875;DHT22;25547;52.530;13.194;2023-04-25T03:31:28;9.60;99.80
39875;DHT22;25547;52.530;13.194;2023-04-25T03:33:55;9.50;99.60
39875;DHT22;25547;52.530;13.194;2023-04-25T03:36:21;9.60;99.50
39875;DHT22;25547;52.530;13.194;2023-04-25T03:38:47;9.60;99.40
39875;DHT22;25547;52.530;13.194;2023-04-25T03:41:15;9.50;99.60
39875;DHT22;25547;52.530;13.194;2023-04-25T03:43:41;9.60;99.80
39875;DHT22;25547;52.530;13.194;2023-04-25T03:46:09;9.60;99.50
39875;DHT22;25547;52.530;13.194;2023-04-25T03:48:34;9.60;99.50
39875;DHT22;25547;52.530;13.194;2023-04-25T03:51:05;9.60;99.40
39875;DHT22;25547;52.530;13.194;2023-04-25T03:53:31;9.60;99.40
39875;DHT22;25547;52.530;13.194;2023-04-25T03:55:56;9.50;99.80
39875;DHT22;25547;52.530;13.194;2023-04-25T03:58:22;9.60;99.60
39875;DHT22;25547;52.530;13.194;2023-04-25T04:00:49;9.60;99.70
39875;DHT22;25547;52.530;13.194;2023-04-25T04:03:15;9.40;99.60
39875;DHT22;25547;52.530;13.194;2023-04-25T04:05:45;9.40;99.80
39875;DHT22;25547;52.530;13.194;2023-04-25T04:08:11;9.40;99.90
39875;DHT22;25547;52.530;13.194;2023-04-25T04:10:37;9.50;99.90
39875;DHT22;25547;52.530;13.194;2023-04-25T04:13:05;9.50;99.70
39875;DHT22;25547;52.530;13.194;2023-04-25T04:15:31;9.60;99.60
39875;DHT22;25547;52.530;13.194;2023-04-25T04:17:58;9.50;99.80
39875;DHT22;25547;52.530;13.194;2023-04-25T04:20:28;9.50;99.80
39875;DHT22;25547;52.530;13.194;2023-04-25T04:22:55;9.50;99.90
39875;DHT22;25547;52.530;13.194;2023-04-25T04:25:25;9.60;99.90
39875;DHT22;25547;52.530;13.194;2023-04-25T04:27:53;9.60;99.80
39875;DHT22;25547;52.530;13.194;2023-04-25T04:30:22;9.50;99.90
39875;DHT22;25547;52.530;13.194;2023-04-25T04:32:52;9.70;99.80
39875;DHT22;25547;52.530;13.194;2023-04-25T04:35:18;9.60;99.60
39875;DHT22;25547;52.530;13.194;2023-04-25T04:37:43;9.70;99.80
39875;DHT22;25547;52.530;13.194;2023-04-25T04:40:11;9.60;99.80
39875;DHT22;25547;52.530;13.194;2023-04-25T04:42:37;9.70;99.80
39875;DHT22;25547;52.530;13.194;2023-04-25T04:45:03;9.60;99.60
39875;DHT22;25547;52.530;13.194;2023-04-25T04:47:31;9.80;99.50
39875;DHT22;25547;52.530;13.194;2023-04-25T04:49:58;9.80;99.70
39875;DHT22;25547;52.530;13.194;2023-04-25T04:52:23;9.80;99.60
39875;DHT22;25547;52.530;13.194;2023-04-25T04:54:49;9.80;99.50
39875;DHT22;25547;52.530;13.194;2023-04-25T04:57:17;9.90;99.30
39875;DHT22;25547;52.530;13.194;2023-04-25T04:59:45;9.70;99.40
39875;DHT22;25547;52.530;13.194;2023-04-25T05:02:11;9.80;99.80
39875;DHT22;25547;52.530;13.194;2023-04-25T05:04:37;9.70;99.50
39875;DHT22;25547;52.530;13.194;2023-04-25T05:07:04;9.70;99.90
39875;DHT22;25547;52.530;13.194;2023-04-25T05:09:30;9.60;99.90
39875;DHT22;25547;52.530;13.194;2023-04-25T05:11:56;9.70;99.90
39875;DHT22;25547;52.530;13.194;2023-04-25T05:14:22;9.60;99.90
39875;DHT22;25547;52.530;13.194;2023-04-25T05:16:48;9.50;99.90
39875;DHT22;25547;52.530;13.194;2023-04-25T05:19:14;9.60;99.90
39875;DHT22;25547;52.530;13.194;2023-04-25T05:21:40;9.60;99.90
39875;DHT22;25547;52.530;13.194;2023-04-25T05:24:06;9.50;99.90
39875;DHT22;25547;52.530;13.194;2023-04-25T05:26:31;9.60;99.90
39875;DHT22;25547;52.530;13.194;2023-04-25T05:28:57;9.50;99.90
39875;DHT22;25547;52.530;13.194;2023-04-25T05:31:23;9.50;99.90
39875;DHT22;25547;52.530;13.194;2023-04-25T05:33:51;9.50;99.90
39875;DHT22;25547;52.530;13.194;2023-04-25T05:36:19;9.60;99.90
39875;DHT22;25547;52.530;13.194;2023-04-25T05:38:45;9.50;99.90
39875;DHT22;25547;52.530;13.194;2023-04-25T05:41:11;9.50;99.90
39875;DHT22;25547;52.530;13.194;2023-04-25T05:43:36;9.40;99.90
39875;DHT22;25547;52.530;13.194;2023-04-25T05:46:06;9.50;99.90
39875;DHT22;25547;52.530;13.194;2023-04-25T05:48:34;9.50;99.90
39875;DHT22;25547;52.530;13.194;2023-04-25T05:51:02;9.60;99.90
39875;DHT22;25547;52.530;13.194;2023-04-25T05:53:28;9.60;99.90
39875;DHT22;25547;52.530;13.194;2023-04-25T05:55:53;9.70;99.90
39875;DHT22;25547;52.530;13.194;2023-04-25T05:58:19;9.70;99.90
39875;DHT22;25547;52.530;13.194;2023-04-25T06:00:44;9.60;99.90
39875;DHT22;25547;52.530;13.194;2023-04-25T06:03:13;9.60;99.90
39875;DHT22;25547;52.530;13.194;2023-04-25T06:05:42;9.60;99.90
39875;DHT22;25547;52.530;13.194;2023-04-25T06:08:10;9.70;99.90
39875;DHT22;25547;52.530;13.194;2023-04-25T06:10:38;9.60;99.90
39875;DHT22;25547;52.530;13.194;2023-04-25T06:13:06;9.70;99.90
39875;DHT22;25547;52.530;13.194;2023-04-25T06:15:32;9.60;99.90
39875;DHT22;25547;52.530;13.194;2023-04-25T06:17:59;9.50;99.90
39875;DHT22;25547;52.530;13.194;2023-04-25T06:20:25;9.50;99.90
39875;DHT22;25547;52.530;13.194;2023-04-25T06:22:51;9.60;99.90
39875;DHT22;25547;52.530;13.194;2023-04-25T06:25:18;9.70;99.90
39875;DHT22;25547;52.530;13.194;2023-04-25T06:27:46;9.90;99.90
39875;DHT22;25547;52.530;13.194;2023-04-25T06:30:14;10.00;99.90
39875;DHT22;25547;52.530;13.194;2023-04-25T06:32:44;10.00;99.90
39875;DHT22;25547;52.530;13.194;2023-04-25T06:35:12;9.80;99.90
39875;DHT22;25547;52.530;13.194;2023-04-25T06:37:38;9.70;99.90
39875;DHT22;25547;52.530;13.194;2023-04-25T06:40:04;9.70;99.90
39875;DHT22;25547;52.530;13.194;2023-04-25T06:42:30;9.60;99.90
39875;DHT22;25547;52.530;13.194;2023-04-25T06:44:58;9.70;99.90
39875;DHT22;25547;52.530;13.194;2023-04-25T06:47:24;9.70;99.90
39875;DHT22;25547;52.530;13.194;2023-04-25T06:49:50;9.60;99.90
39875;DHT22;25547;52.530;13.194;2023-04-25T06:52:15;9.50;99.90
39875;DHT22;25547;52.530;13.194;2023-04-25T06:54:43;9.40;99.90
39875;DHT22;25547;52.530;13.194;2023-04-25T06:57:11;9.20;99.90
39875;DHT22;25547;52.530;13.194;2023-04-25T06:59:37;9.30;99.90
39875;DHT22;25547;52.530;13.194;2023-04-25T07:02:03;9.40;99.90
39875;DHT22;25547;52.530;13.194;2023-04-25T07:04:29;9.20;99.90
39875;DHT22;25547;52.530;13.194;2023-04-25T07:06:55;9.20;99.90
39875;DHT22;25547;52.530;13.194;2023-04-25T07:09:21;9.30;99.90
39875;DHT22;25547;52.530;13.194;2023-04-25T07:11:47;9.20;99.90
39875;DHT22;25547;52.530;13.194;2023-04-25T07:14:17;9.30;99.90
39875;DHT22;25547;52.530;13.194;2023-04-25T07:16:43;9.40;99.90
39875;DHT22;25547;52.530;13.194;2023-04-25T07:19:08;9.50;99.90
39875;DHT22;25547;52.530;13.194;2023-04-25T07:21:34;9.50;99.90
39875;DHT22;25547;52.530;13.194;2023-04-25T07:24:01;9.70;99.90
39875;DHT22;25547;52.530;13.194;2023-04-25T07:26:27;9.70;99.90
39875;DHT22;25547;52.530;13.194;2023-04-25T07:28:53;9.70;99.90
39875;DHT22;25547;52.530;13.194;2023-04-25T07:31:20;9.60;99.90
39875;DHT22;25547;52.530;13.194;2023-04-25T07:33:46;9.60;99.90
39875;DHT22;25547;52.530;13.194;2023-04-25T07:36:14;9.40;99.90
39875;DHT22;25547;52.530;13.194;2023-04-25T07:38:40;9.50;99.90
39875;DHT22;25547;52.530;13.194;2023-04-25T07:41:09;9.50;99.90
39875;DHT22;25547;52.530;13.194;2023-04-25T07:43:34;9.50;99.30
39875;DHT22;25547;52.530;13.194;2023-04-25T07:46:00;9.50;99.00
39875;DHT22;25547;52.530;13.194;2023-04-25T07:48:28;9.50;97.90
39875;DHT22;25547;52.530;13.194;2023-04-25T07:50:53;9.50;97.40
39875;DHT22;25547;52.530;13.194;2023-04-25T07:53:24;9.80;97.20
39875;DHT22;25547;52.530;13.194;2023-04-25T07:55:50;9.90;96.70
39875;DHT22;25547;52.530;13.194;2023-04-25T07:58:16;10.00;96.00
39875;DHT22;25547;52.530;13.194;2023-04-25T08:00:49;10.00;95.70
39875;DHT22;25547;52.530;13.194;2023-04-25T08:03:15;9.80;96.10
39875;DHT22;25547;52.530;13.194;2023-04-25T08:05:40;9.60;95.90
39875;DHT22;25547;52.530;13.194;2023-04-25T08:08:08;9.60;95.90
39875;DHT22;25547;52.530;13.194;2023-04-25T08:10:36;9.90;96.00
39875;DHT22;25547;52.530;13.194;2023-04-25T08:13:04;10.30;95.60
39875;DHT22;25547;52.530;13.194;2023-04-25T08:15:33;10.40;95.80
39875;DHT22;25547;52.530;13.194;2023-04-25T08:17:58;10.30;94.70
39875;DHT22;25547;52.530;13.194;2023-04-25T08:20:24;10.40;94.50
39875;DHT22;25547;52.530;13.194;2023-04-25T08:22:50;10.50;93.60
39875;DHT22;25547;52.530;13.194;2023-04-25T08:25:16;10.50;93.30
39875;DHT22;25547;52.530;13.194;2023-04-25T08:27:44;10.60;92.70
39875;DHT22;25547;52.530;13.194;2023-04-25T08:30:10;10.50;90.70
39875;DHT22;25547;52.530;13.194;2023-04-25T08:32:36;10.70;90.30
39875;DHT22;25547;52.530;13.194;2023-04-25T08:35:03;11.60;86.50
39875;DHT22;25547;52.530;13.194;2023-04-25T08:37:32;12.40;83.40
39875;DHT22;25547;52.530;13.194;2023-04-25T08:39:58;12.60;82.80
39875;DHT22;25547;52.530;13.194;2023-04-25T08:42:24;14.30;79.20
39875;DHT22;25547;52.530;13.194;2023-04-25T08:44:53;15.00;73.70
39875;DHT22;25547;52.530;13.194;2023-04-25T08:47:22;17.00;68.00
39875;DHT22;25547;52.530;13.194;2023-04-25T08:49:54;16.80;63.90
39875;DHT22;25547;52.530;13.194;2023-04-25T08:52:22;16.00;64.00
39875;DHT22;25547;52.530;13.194;2023-04-25T08:54:51;15.20;65.40
39875;DHT22;25547;52.530;13.194;2023-04-25T08:57:18;14.90;67.60
39875;DHT22;25547;52.530;13.194;2023-04-25T08:59:47;14.80;67.00
39875;DHT22;25547;52.530;13.194;2023-04-25T09:02:14;13.60;67.70
39875;DHT22;25547;52.530;13.194;2023-04-25T09:04:46;13.10;70.00
39875;DHT22;25547;52.530;13.194;2023-04-25T09:07:11;12.90;72.10
39875;DHT22;25547;52.530;13.194;2023-04-25T09:09:40;12.60;74.20
39875;DHT22;25547;52.530;13.194;2023-04-25T09:12:06;12.50;74.40
39875;DHT22;25547;52.530;13.194;2023-04-25T09:14:31;12.60;74.20
39875;DHT22;25547;52.530;13.194;2023-04-25T09:19:30;13.40;73.20
39875;DHT22;25547;52.530;13.194;2023-04-25T09:21:58;13.20;70.80
39875;DHT22;25547;52.530;13.194;2023-04-25T09:24:41;12.80;70.60
39875;DHT22;25547;52.530;13.194;2023-04-25T09:27:13;12.90;71.40
39875;DHT22;25547;52.530;13.194;2023-04-25T09:29:42;13.20;70.40
39875;DHT22;25547;52.530;13.194;2023-04-25T09:32:18;12.70;71.70
39875;DHT22;25547;52.530;13.194;2023-04-25T09:34:48;12.20;72.60
39875;DHT22;25547;52.530;13.194;2023-04-25T09:37:19;12.20;73.80
39875;DHT22;25547;52.530;13.194;2023-04-25T09:39:52;12.10;72.40
39875;DHT22;25547;52.530;13.194;2023-04-25T09:42:17;11.90;73.30
39875;DHT22;25547;52.530;13.194;2023-04-25T09:44:46;11.60;73.80
39875;DHT22;25547;52.530;13.194;2023-04-25T09:47:14;11.70;73.40
39875;DHT22;25547;52.530;13.194;2023-04-25T09:49:42;11.80;73.40
39875;DHT22;25547;52.530;13.194;2023-04-25T09:52:09;11.80;72.20
39875;DHT22;25547;52.530;13.194;2023-04-25T09:54:37;12.20;72.20
39875;DHT22;25547;52.530;13.194;2023-04-25T09:57:13;12.00;70.10
39875;DHT22;25547;52.530;13.194;2023-04-25T09:59:52;11.80;70.20
39875;DHT22;25547;52.530;13.194;2023-04-25T10:02:20;11.80;70.40
39875;DHT22;25547;52.530;13.194;2023-04-25T10:04:54;12.00;70.50
39875;DHT22;25547;52.530;13.194;2023-04-25T10:07:24;12.30;69.60
39875;DHT22;25547;52.530;13.194;2023-04-25T10:09:54;12.00;68.90
39875;DHT22;25547;52.530;13.194;2023-04-25T10:12:24;12.20;69.90
39875;DHT22;25547;52.530;13.194;2023-04-25T10:14:50;12.30;68.60
39875;DHT22;25547;52.530;13.194;2023-04-25T10:17:17;12.20;70.30
39875;DHT22;25547;52.530;13.194;2023-04-25T10:19:47;11.90;70.30
39875;DHT22;25547;52.530;13.194;2023-04-25T10:22:45;11.80;70.90
39875;DHT22;25547;52.530;13.194;2023-04-25T10:25:11;11.80;69.80
39875;DHT22;25547;52.530;13.194;2023-04-25T10:27:39;12.10;70.20
39875;DHT22;25547;52.530;13.194;2023-04-25T10:30:15;12.10;69.10
39875;DHT22;25547;52.530;13.194;2023-04-25T10:32:43;12.00;70.20
39875;DHT22;25547;52.530;13.194;2023-04-25T10:35:29;11.90;70.00
39875;DHT22;25547;52.530;13.194;2023-04-25T10:38:14;12.00;69.30
39875;DHT22;25547;52.530;13.194;2023-04-25T10:40:39;11.70;69.50
39875;DHT22;25547;52.530;13.194;2023-04-25T10:46:29;11.30;70.40
39875;DHT22;25547;52.530;13.194;2023-04-25T10:49:02;11.40;70.40
39875;DHT22;25547;52.530;13.194;2023-04-25T10:51:33;11.70;67.50
39875;DHT22;25547;52.530;13.194;2023-04-25T10:54:00;11.80;68.10
39875;DHT22;25547;52.530;13.194;2023-04-25T10:56:31;12.10;69.30
39875;DHT22;25547;52.530;13.194;2023-04-25T11:01:45;11.30;69.20
39875;DHT22;25547;52.530;13.194;2023-04-25T11:04:24;11.10;72.60
39875;DHT22;25547;52.530;13.194;2023-04-25T11:09:33;10.70;73.70
39875;DHT22;25547;52.530;13.194;2023-04-25T11:12:01;10.70;73.60
39875;DHT22;25547;52.530;13.194;2023-04-25T11:14:27;10.60;69.70
39875;DHT22;25547;52.530;13.194;2023-04-25T11:16:59;10.60;66.30
39875;DHT22;25547;52.530;13.194;2023-04-25T11:19:25;10.60;66.90
39875;DHT22;25547;52.530;13.194;2023-04-25T11:21:55;10.60;67.60
39875;DHT22;25547;52.530;13.194;2023-04-25T11:24:30;10.60;67.50
39875;DHT22;25547;52.530;13.194;2023-04-25T11:26:58;10.70;65.90
39875;DHT22;25547;52.530;13.194;2023-04-25T11:29:31;10.60;66.30
39875;DHT22;25547;52.530;13.194;2023-04-25T11:31:57;10.80;65.60
39875;DHT22;25547;52.530;13.194;2023-04-25T11:34:27;11.10;66.10
39875;DHT22;25547;52.530;13.194;2023-04-25T11:36:55;11.10;66.20
39875;DHT22;25547;52.530;13.194;2023-04-25T11:39:21;11.20;65.90
39875;DHT22;25547;52.530;13.194;2023-04-25T11:41:52;11.30;67.40
39875;DHT22;25547;52.530;13.194;2023-04-25T11:44:18;11.10;66.60
39875;DHT22;25547;52.530;13.194;2023-04-25T11:46:45;11.00;67.60
39875;DHT22;25547;52.530;13.194;2023-04-25T11:49:14;11.00;68.20
39875;DHT22;25547;52.530;13.194;2023-04-25T11:51:40;11.10;67.50
39875;DHT22;25547;52.530;13.194;2023-04-25T11:54:06;11.20;67.50
39875;DHT22;25547;52.530;13.194;2023-04-25T11:56:32;11.20;67.30
39875;DHT22;25547;52.530;13.194;2023-04-25T11:59:04;11.20;68.60
39875;DHT22;25547;52.530;13.194;2023-04-25T12:01:32;10.90;69.10
39875;DHT22;25547;52.530;13.194;2023-04-25T12:04:09;11.00;70.00
39875;DHT22;25547;52.530;13.194;2023-04-25T12:06:39;10.90;66.50
39875;DHT22;25547;52.530;13.194;2023-04-25T12:09:08;10.90;67.50
39875;DHT22;25547;52.530;13.194;2023-04-25T12:11:41;10.90;67.70
39875;DHT22;25547;52.530;13.194;2023-04-25T12:14:08;10.80;66.80
39875;DHT22;25547;52.530;13.194;2023-04-25T12:16:43;11.00;67.50
39875;DHT22;25547;52.530;13.194;2023-04-25T12:19:09;11.30;68.90
39875;DHT22;25547;52.530;13.194;2023-04-25T12:21:37;11.20;67.20
39875;DHT22;25547;52.530;13.194;2023-04-25T12:27:05;11.20;66.80
39875;DHT22;25547;52.530;13.194;2023-04-25T12:29:34;11.30;66.70
39875;DHT22;25547;52.530;13.194;2023-04-25T12:32:01;11.10;67.70
39875;DHT22;25547;52.530;13.194;2023-04-25T12:34:27;10.80;67.30
39875;DHT22;25547;52.530;13.194;2023-04-25T12:36:54;10.80;68.80
39875;DHT22;25547;52.530;13.194;2023-04-25T12:39:24;10.90;69.50
39875;DHT22;25547;52.530;13.194;2023-04-25T12:41:55;11.00;69.10
39875;DHT22;25547;52.530;13.194;2023-04-25T12:44:21;10.90;67.10
39875;DHT22;25547;52.530;13.194;2023-04-25T12:46:51;10.90;68.10
39875;DHT22;25547;52.530;13.194;2023-04-25T12:49:18;10.80;68.30
39875;DHT22;25547;52.530;13.194;2023-04-25T12:51:43;10.90;69.20
39875;DHT22;25547;52.530;13.194;2023-04-25T12:54:09;11.10;68.60
39875;DHT22;25547;52.530;13.194;2023-04-25T12:56:35;11.10;67.70
39875;DHT22;25547;52.530;13.194;2023-04-25T12:59:02;11.00;67.70
39875;DHT22;25547;52.530;13.194;2023-04-25T13:01:31;10.90;66.40
39875;DHT22;25547;52.530;13.194;2023-04-25T13:03:59;10.90;66.40
39875;DHT22;25547;52.530;13.194;2023-04-25T13:06:25;10.80;67.60
39875;DHT22;25547;52.530;13.194;2023-04-25T13:08:52;10.80;67.00
39875;DHT22;25547;52.530;13.194;2023-04-25T13:11:18;11.00;67.80
39875;DHT22;25547;52.530;13.194;2023-04-25T13:13:44;11.10;67.70
39875;DHT22;25547;52.530;13.194;2023-04-25T13:16:13;11.20;67.50
39875;DHT22;25547;52.530;13.194;2023-04-25T13:18:46;11.10;66.70
39875;DHT22;25547;52.530;13.194;2023-04-25T13:21:11;11.20;67.10
39875;DHT22;25547;52.530;13.194;2023-04-25T13:23:37;11.20;69.00
39875;DHT22;25547;52.530;13.194;2023-04-25T13:26:05;11.00;69.00
39875;DHT22;25547;52.530;13.194;2023-04-25T13:28:36;11.00;69.90
39875;DHT22;25547;52.530;13.194;2023-04-25T13:31:01;11.00;69.20
39875;DHT22;25547;52.530;13.194;2023-04-25T13:33:27;11.00;69.00
39875;DHT22;25547;52.530;13.194;2023-04-25T13:35:55;11.20;68.60
39875;DHT22;25547;52.530;13.194;2023-04-25T13:38:23;11.30;68.90
39875;DHT22;25547;52.530;13.194;2023-04-25T13:40:52;11.40;68.70
39875;DHT22;25547;52.530;13.194;2023-04-25T13:43:23;11.50;70.50
39875;DHT22;25547;52.530;13.194;2023-04-25T13:45:49;11.40;69.70
39875;DHT22;25547;52.530;13.194;2023-04-25T13:48:18;11.10;69.20
39875;DHT22;25547;52.530;13.194;2023-04-25T13:50:43;11.10;69.70
39875;DHT22;25547;52.530;13.194;2023-04-25T13:53:09;11.00;70.40
39875;DHT22;25547;52.530;13.194;2023-04-25T13:55:35;11.00;71.80
39875;DHT22;25547;52.530;13.194;2023-04-25T13:58:05;10.90;70.90
39875;DHT22;25547;52.530;13.194;2023-04-25T14:00:37;10.80;70.60
39875;DHT22;25547;52.530;13.194;2023-04-25T14:03:07;10.70;70.40
39875;DHT22;25547;52.530;13.194;2023-04-25T14:05:34;10.60;70.70
39875;DHT22;25547;52.530;13.194;2023-04-25T14:08:05;10.60;72.40
39875;DHT22;25547;52.530;13.194;2023-04-25T14:10:34;10.40;70.50
39875;DHT22;25547;52.530;13.194;2023-04-25T14:13:02;10.40;70.40
39875;DHT22;25547;52.530;13.194;2023-04-25T14:15:30;10.50;71.40
39875;DHT22;25547;52.530;13.194;2023-04-25T14:17:56;10.40;70.50
39875;DHT22;25547;52.530;13.194;2023-04-25T14:20:21;10.50;72.00
39875;DHT22;25547;52.530;13.194;2023-04-25T14:22:49;10.60;72.00
39875;DHT22;25547;52.530;13.194;2023-04-25T14:25:15;10.80;72.80
39875;DHT22;25547;52.530;13.194;2023-04-25T14:27:41;10.80;71.60
39875;DHT22;25547;52.530;13.194;2023-04-25T14:30:07;10.80;71.80
39875;DHT22;25547;52.530;13.194;2023-04-25T14:32:34;11.10;70.40
39875;DHT22;25547;52.530;13.194;2023-04-25T14:35:02;11.20;69.90
39875;DHT22;25547;52.530;13.194;2023-04-25T14:37:30;10.90;70.10
39875;DHT22;25547;52.530;13.194;2023-04-25T14:39:55;10.90;71.90
39875;DHT22;25547;52.530;13.194;2023-04-25T14:42:21;10.70;72.00
39875;DHT22;25547;52.530;13.194;2023-04-25T14:44:49;10.50;72.00
39875;DHT22;25547;52.530;13.194;2023-04-25T14:47:17;10.40;72.70
39875;DHT22;25547;52.530;13.194;2023-04-25T14:49:44;10.30;73.40
39875;DHT22;25547;52.530;13.194;2023-04-25T14:52:14;10.30;74.60
39875;DHT22;25547;52.530;13.194;2023-04-25T14:54:40;10.30;74.50
39875;DHT22;25547;52.530;13.194;2023-04-25T14:57:06;10.40;75.00
39875;DHT22;25547;52.530;13.194;2023-04-25T14:59:31;10.40;76.00
39875;DHT22;25547;52.530;13.194;2023-04-25T15:01:57;10.50;74.90
39875;DHT22;25547;52.530;13.194;2023-04-25T15:04:24;10.50;75.60
39875;DHT22;25547;52.530;13.194;2023-04-25T15:06:52;10.60;75.10
39875;DHT22;25547;52.530;13.194;2023-04-25T15:09:18;10.60;74.10
39875;DHT22;25547;52.530;13.194;2023-04-25T15:11:44;10.40;73.70
39875;DHT22;25547;52.530;13.194;2023-04-25T15:14:13;10.60;74.40
39875;DHT22;25547;52.530;13.194;2023-04-25T15:16:38;10.50;74.00
39875;DHT22;25547;52.530;13.194;2023-04-25T15:19:06;10.60;74.80
39875;DHT22;25547;52.530;13.194;2023-04-25T15:21:35;10.80;75.10
39875;DHT22;25547;52.530;13.194;2023-04-25T15:24:03;10.90;73.80
39875;DHT22;25547;52.530;13.194;2023-04-25T15:26:31;10.80;71.60
39875;DHT22;25547;52.530;13.194;2023-04-25T15:28:57;10.80;71.70
39875;DHT22;25547;52.530;13.194;2023-04-25T15:31:28;10.70;72.20
39875;DHT22;25547;52.530;13.194;2023-04-25T15:33:53;10.70;73.10
39875;DHT22;25547;52.530;13.194;2023-04-25T15:36:19;10.70;71.60
39875;DHT22;25547;52.530;13.194;2023-04-25T15:38:46;10.60;72.70
39875;DHT22;25547;52.530;13.194;2023-04-25T15:41:12;10.60;73.30